Portada
METAR-TAF:

METAR-TAF

Aeropuertos :

Carcasona, Francia

latitud: 43-13N, longitud: 002-19E, altitud: 130 m

Observación

El informe se hizo hace 33 minutos, a las 19:00 UTC
Viento 14 kt del este
Temperatura 12°C
Humedad 71%
Presión 1011 hPa
Visibilidad 10 km o más
sin nubes por debajo de 1500 m y sin presencia de cumulonimbus.

METAR: LFMK 291900Z AUTO 09014KT CAVOK 12/07 Q1011

Hora: 21:33 (19:33 UTC)

Pronóstico

El informe se hizo hace 5 horas y 33 minutos, a las 14:00 UTC
Pronóstico válido del 29 a las 15 UTC al 30 a las 15 UTC
Viento 15 kt del este
Visibilidad 10 km o más
sin nubes por debajo de 1500 m y sin presencia de cumulonimbus.
Temporalmente
del 30 a las 02 UTC al 30 a las 09 UTC
Cielo nuboso a una altura de 2000 ft
Evolucionando progresivamente
del 30 a las 12 UTC al 30 a las 15 UTC
Viento 20 kt del este con ráfagas de 35 kt

TAF: LFMK 291400Z 2915/3015 09015KT CAVOK TEMPO 3002/3009 BKN020 BECMG 3012/3015 09020G35KT

Observaciones y pronósticos meteorológicos de más de 4000 aeropuertos (mensajes METAR y TAF).

Los puntos amarillos y rojos representan las estaciones disponibles.

Ponga el ratón en el punto deseado para ver el nombre de la estación.

Haga clic para ver las observaciones y los pronósticos meteorológicos.

Para cambiar el mapa : haga clic en los botones verdes con una cruz de color negro para hacer un zoom, en el botón verde con un guión para alejar o en las flechas verdes para mapas adyacentes.


METAR-TAF: